createdAt,value
2023-05-08T00:00:00.561Z,6.81
2023-05-08T00:02:33.716Z,6.79
2023-05-08T00:05:04.242Z,6.76
2023-05-08T00:07:44.658Z,6.72
2023-05-08T00:10:18.258Z,6.71
2023-05-08T00:12:46.407Z,6.69
2023-05-08T00:15:20.878Z,6.64
2023-05-08T00:17:54.354Z,6.62
2023-05-08T00:20:41.072Z,6.59
2023-05-08T00:23:12.101Z,6.57
2023-05-08T00:25:45.228Z,6.54
2023-05-08T00:28:20.026Z,6.52
2023-05-08T00:30:52.495Z,6.51
2023-05-08T00:33:20.677Z,6.47
2023-05-08T00:35:48.735Z,6.44
2023-05-08T00:38:16.741Z,6.41
2023-05-08T00:40:44.618Z,6.36
2023-05-08T00:43:12.464Z,6.33
2023-05-08T00:45:41.351Z,6.30
2023-05-08T00:48:10.669Z,6.25
2023-05-08T00:50:38.560Z,6.23
2023-05-08T00:53:06.696Z,6.19
2023-05-08T00:55:34.896Z,6.17
2023-05-08T00:58:03.568Z,6.12
2023-05-08T01:00:34.708Z,6.09
2023-05-08T01:03:03.414Z,6.06
2023-05-08T01:05:39.320Z,6.03
2023-05-08T01:08:10.968Z,5.99
2023-05-08T01:11:01.993Z,5.95
2023-05-08T01:13:56.877Z,5.93
2023-05-08T01:16:33.496Z,5.89
2023-05-08T01:19:21.383Z,5.87
2023-05-08T01:22:01.890Z,5.83
2023-05-08T01:24:55.265Z,5.78
2023-05-08T01:27:43.214Z,5.76
2023-05-08T01:30:48.126Z,5.71
2023-05-08T01:33:25.108Z,5.69
2023-05-08T01:36:00.128Z,5.65
2023-05-08T01:38:33.688Z,5.62
2023-05-08T01:41:15.789Z,5.60
2023-05-08T01:43:51.614Z,5.57
2023-05-08T01:46:23.941Z,5.56
2023-05-08T01:49:04.008Z,5.55
2023-05-08T01:51:39.124Z,5.52
2023-05-08T01:54:11.333Z,5.49
2023-05-08T01:56:44.181Z,5.48
2023-05-08T01:59:16.968Z,5.46
2023-05-08T02:01:47.236Z,5.44
2023-05-08T02:04:18.466Z,5.42
2023-05-08T02:06:47.507Z,5.41
2023-05-08T02:09:17.671Z,5.37
2023-05-08T02:11:47.139Z,5.35
2023-05-08T02:14:22.202Z,5.32
2023-05-08T02:16:53.566Z,5.29
2023-05-08T02:19:26.603Z,5.27
2023-05-08T02:21:58.232Z,5.25
2023-05-08T02:24:27.530Z,5.25
2023-05-08T02:26:58.976Z,5.19
2023-05-08T02:29:32.192Z,5.18
2023-05-08T02:32:03.732Z,5.15
2023-05-08T02:34:34.028Z,5.13
2023-05-08T02:37:04.664Z,5.13
2023-05-08T02:39:35.977Z,5.10
2023-05-08T02:42:04.856Z,5.08
2023-05-08T02:44:33.074Z,5.04
2023-05-08T02:47:10.642Z,5.02
2023-05-08T02:49:50.995Z,5.01
2023-05-08T02:52:24.811Z,4.97
2023-05-08T02:54:59.563Z,4.94
2023-05-08T02:57:34.690Z,4.92
2023-05-08T03:00:07.266Z,4.89
2023-05-08T03:02:44.079Z,4.87
2023-05-08T03:05:18.251Z,4.82
2023-05-08T03:07:51.344Z,4.82
2023-05-08T03:10:22.874Z,4.79
2023-05-08T03:12:54.623Z,4.79
2023-05-08T03:15:28.143Z,4.78
2023-05-08T03:17:58.862Z,4.76
2023-05-08T03:20:33.444Z,4.75
2023-05-08T03:23:03.952Z,4.73
2023-05-08T03:25:33.710Z,4.69
2023-05-08T03:28:04.682Z,4.68
2023-05-08T03:30:33.930Z,4.66
2023-05-08T03:33:08.853Z,4.65
2023-05-08T03:35:39.032Z,4.63
2023-05-08T03:38:09.404Z,4.62
2023-05-08T03:40:38.790Z,4.59
2023-05-08T03:43:08.482Z,4.58
2023-05-08T03:45:37.590Z,4.56
2023-05-08T03:48:06.543Z,4.55
2023-05-08T03:50:36.898Z,4.53
2023-05-08T03:53:07.754Z,4.52
2023-05-08T03:55:36.950Z,4.51
2023-05-08T03:58:16.157Z,4.49
2023-05-08T04:00:59.289Z,4.47
2023-05-08T04:03:51.780Z,4.46
2023-05-08T04:06:30.764Z,4.46
2023-05-08T04:09:08.572Z,4.47
2023-05-08T04:11:43.213Z,4.46
2023-05-08T04:14:17.405Z,4.50
2023-05-08T04:16:50.983Z,4.50
2023-05-08T04:19:24.284Z,4.53
2023-05-08T04:21:56.566Z,4.56
2023-05-08T04:24:28.807Z,4.59
2023-05-08T04:26:58.132Z,4.61
2023-05-08T04:29:26.756Z,4.64
2023-05-08T04:31:54.976Z,4.69
2023-05-08T04:34:23.001Z,4.72
2023-05-08T04:36:51.991Z,4.77
2023-05-08T04:39:20.118Z,4.81
2023-05-08T04:41:51.373Z,4.86
2023-05-08T04:44:21.871Z,4.90
2023-05-08T04:46:52.923Z,4.94
2023-05-08T04:49:20.818Z,4.99
2023-05-08T04:51:48.876Z,5.05
2023-05-08T04:54:16.885Z,5.08
2023-05-08T04:56:45.105Z,5.13
2023-05-08T04:59:16.106Z,5.19
2023-05-08T05:01:44.345Z,5.22
2023-05-08T05:04:12.482Z,5.27
2023-05-08T05:06:40.413Z,5.32
2023-05-08T05:09:08.387Z,5.35
2023-05-08T05:11:36.328Z,5.40
2023-05-08T05:14:06.054Z,5.43
2023-05-08T05:16:35.719Z,5.48
2023-05-08T05:19:04.969Z,5.53
2023-05-08T05:21:40.652Z,5.57
2023-05-08T05:24:11.491Z,5.63
2023-05-08T05:26:39.759Z,5.67
2023-05-08T05:29:08.607Z,5.74
2023-05-08T05:31:37.980Z,5.80
2023-05-08T05:34:05.934Z,5.86
2023-05-08T05:36:34.056Z,5.93
2023-05-08T05:39:02.022Z,6.01
2023-05-08T05:41:30.513Z,6.08
2023-05-08T05:43:58.839Z,6.15
2023-05-08T05:46:32.571Z,6.22
2023-05-08T05:49:04.182Z,6.29
2023-05-08T05:51:33.870Z,6.39
2023-05-08T05:54:01.871Z,6.46
2023-05-08T05:56:30.471Z,6.54
2023-05-08T05:58:58.342Z,6.62
2023-05-08T06:01:29.123Z,6.70
2023-05-08T06:04:09.246Z,6.79
2023-05-08T06:06:39.655Z,6.88
2023-05-08T06:09:10.952Z,6.97
2023-05-08T06:11:39.262Z,7.06
2023-05-08T06:14:08.259Z,7.15
2023-05-08T06:16:37.694Z,7.25
2023-05-08T06:19:05.916Z,7.30
2023-05-08T06:21:34.635Z,7.36
2023-05-08T06:24:03.996Z,7.39
2023-05-08T06:26:31.867Z,7.43
2023-05-08T06:28:59.709Z,7.49
2023-05-08T06:31:27.725Z,7.60
2023-05-08T06:33:55.621Z,7.69
2023-05-08T06:36:23.716Z,7.79
2023-05-08T06:38:51.447Z,7.92
2023-05-08T06:41:21.858Z,8.03
2023-05-08T06:43:49.727Z,8.14
2023-05-08T06:46:18.579Z,8.26
2023-05-08T06:48:46.378Z,8.35
2023-05-08T06:51:18.633Z,8.48
2023-05-08T06:53:50.927Z,8.60
2023-05-08T06:56:21.322Z,8.73
2023-05-08T06:59:04.522Z,8.86
2023-05-08T07:01:37.554Z,8.98
2023-05-08T07:04:09.222Z,9.08
2023-05-08T07:06:37.035Z,9.18
2023-05-08T07:09:05.062Z,9.26
2023-05-08T07:11:34.281Z,9.37
2023-05-08T07:14:02.036Z,9.50
2023-05-08T07:16:29.822Z,9.58
2023-05-08T07:18:57.625Z,9.68
2023-05-08T07:21:25.364Z,9.80
2023-05-08T07:23:53.918Z,9.88
2023-05-08T07:26:22.512Z,9.98
2023-05-08T07:28:53.822Z,10.09
2023-05-08T07:31:21.803Z,10.25
2023-05-08T07:33:49.583Z,10.37
2023-05-08T07:36:17.265Z,10.48
2023-05-08T07:38:44.958Z,10.59
2023-05-08T07:41:12.725Z,10.68
2023-05-08T07:43:40.623Z,10.75
2023-05-08T07:46:09.740Z,10.81
2023-05-08T07:48:37.451Z,10.89
2023-05-08T07:51:05.572Z,10.96
2023-05-08T07:53:33.276Z,11.01
2023-05-08T07:56:00.989Z,11.10
2023-05-08T07:58:28.708Z,11.22
2023-05-08T08:00:56.374Z,11.35
2023-05-08T08:03:25.573Z,11.46
2023-05-08T08:05:53.354Z,11.61
2023-05-08T08:08:21.059Z,11.76
2023-05-08T08:10:48.848Z,11.86
2023-05-08T08:13:17.651Z,11.95
2023-05-08T08:15:45.503Z,12.02
2023-05-08T08:18:13.269Z,12.13
2023-05-08T08:20:43.805Z,12.26
2023-05-08T08:23:11.533Z,12.42
2023-05-08T08:25:39.256Z,12.58
2023-05-08T08:28:06.946Z,12.72
2023-05-08T08:30:34.685Z,12.76
2023-05-08T08:33:02.514Z,12.83
2023-05-08T08:35:30.414Z,12.89
2023-05-08T08:37:59.525Z,12.99
2023-05-08T08:40:27.515Z,13.12
2023-05-08T08:42:55.788Z,13.23
2023-05-08T08:45:23.561Z,13.34
2023-05-08T08:47:53.649Z,13.40
2023-05-08T08:50:26.117Z,13.41
2023-05-08T08:53:02.049Z,13.43
2023-05-08T08:55:31.027Z,13.46
2023-05-08T08:58:07.183Z,13.57
2023-05-08T09:00:37.960Z,13.73
2023-05-08T09:03:07.024Z,13.79
2023-05-08T09:05:35.144Z,13.86
2023-05-08T09:08:04.442Z,13.98
2023-05-08T09:10:32.191Z,14.12
2023-05-08T09:13:00.042Z,14.25
2023-05-08T09:15:27.826Z,14.40
2023-05-08T09:17:55.612Z,14.52
2023-05-08T09:20:24.005Z,14.62
2023-05-08T09:22:52.693Z,14.77
2023-05-08T09:25:22.017Z,14.96
2023-05-08T09:27:49.813Z,15.09
2023-05-08T09:30:17.829Z,15.16
2023-05-08T09:32:46.172Z,15.19
2023-05-08T09:35:14.432Z,15.26
2023-05-08T09:37:44.077Z,15.44
2023-05-08T09:40:20.109Z,15.68
2023-05-08T09:42:50.853Z,15.83
2023-05-08T09:45:28.985Z,15.84
2023-05-08T09:47:56.930Z,15.91
2023-05-08T09:50:25.353Z,16.14
2023-05-08T09:52:53.109Z,16.40
2023-05-08T09:55:21.118Z,16.65
2023-05-08T09:57:58.193Z,16.86
2023-05-08T10:00:27.015Z,17.08
2023-05-08T10:02:57.797Z,17.17
2023-05-08T10:05:29.788Z,17.28
2023-05-08T10:07:59.141Z,17.41
2023-05-08T10:10:28.246Z,17.54
2023-05-08T10:12:58.951Z,17.74
2023-05-08T10:15:29.805Z,17.87
2023-05-08T10:18:05.617Z,17.77
2023-05-08T10:20:34.695Z,17.74
2023-05-08T10:23:04.566Z,17.68
2023-05-08T10:25:34.389Z,17.63
2023-05-08T10:28:14.342Z,17.55
2023-05-08T10:30:51.817Z,17.48
2023-05-08T10:33:28.494Z,17.39
2023-05-08T10:36:00.951Z,17.25
2023-05-08T10:38:34.090Z,17.15
2023-05-08T10:41:02.660Z,17.09
2023-05-08T10:43:32.421Z,17.16
2023-05-08T10:46:08.566Z,17.34
2023-05-08T10:48:44.582Z,17.44
2023-05-08T10:51:21.068Z,17.55
2023-05-08T10:53:54.852Z,17.60
2023-05-08T10:56:27.383Z,17.71
2023-05-08T10:58:58.875Z,17.80
2023-05-08T11:01:27.464Z,17.99
2023-05-08T11:03:56.784Z,18.20
2023-05-08T11:06:45.937Z,18.46
2023-05-08T11:09:21.929Z,18.77
2023-05-08T11:12:05.335Z,19.03
2023-05-08T11:14:34.868Z,19.23
2023-05-08T11:17:10.115Z,19.45
2023-05-08T11:19:39.154Z,19.73
2023-05-08T11:22:24.796Z,19.82
2023-05-08T11:24:57.948Z,19.88
2023-05-08T11:27:33.849Z,20.01
2023-05-08T11:30:27.091Z,20.19
2023-05-08T11:33:17.628Z,20.24
2023-05-08T11:35:54.106Z,20.45
2023-05-08T11:38:41.264Z,20.65
2023-05-08T11:41:10.691Z,20.71
2023-05-08T11:44:14.924Z,20.85
2023-05-08T11:46:51.530Z,21.08
2023-05-08T11:49:24.716Z,21.27
2023-05-08T11:51:58.726Z,21.39
2023-05-08T11:54:30.157Z,21.47
2023-05-08T11:56:59.549Z,21.50
2023-05-08T11:59:27.504Z,21.66
2023-05-08T12:02:06.893Z,21.77
2023-05-08T12:04:44.604Z,21.78
2023-05-08T12:07:12.628Z,21.84
2023-05-08T12:09:40.419Z,21.91
2023-05-08T12:12:08.345Z,21.90
2023-05-08T12:14:36.138Z,22.05
2023-05-08T12:17:05.356Z,22.06
2023-05-08T12:19:33.184Z,22.13
2023-05-08T12:22:01.576Z,22.26
2023-05-08T12:24:29.597Z,22.30
2023-05-08T12:26:57.461Z,22.36
2023-05-08T12:29:25.222Z,22.44
2023-05-08T12:31:53.755Z,22.63
2023-05-08T12:34:23.584Z,22.70
2023-05-08T12:37:02.908Z,22.63
2023-05-08T12:39:36.792Z,22.53
2023-05-08T12:42:04.894Z,22.67
2023-05-08T12:44:32.686Z,22.73
2023-05-08T12:47:03.484Z,22.75
2023-05-08T12:49:33.474Z,22.84
2023-05-08T12:52:06.828Z,22.91
2023-05-08T12:54:39.093Z,22.89
2023-05-08T12:57:13.839Z,22.99
2023-05-08T12:59:45.436Z,22.94
2023-05-08T13:02:15.079Z,22.97
2023-05-08T13:04:50.161Z,23.02
2023-05-08T13:07:26.596Z,23.02
2023-05-08T13:09:58.656Z,23.15
2023-05-08T13:12:31.853Z,23.15
2023-05-08T13:15:07.411Z,23.25
2023-05-08T13:17:35.585Z,23.35
2023-05-08T13:20:10.545Z,23.49
2023-05-08T13:22:44.301Z,23.53
2023-05-08T13:25:12.821Z,23.45
2023-05-08T13:27:45.196Z,23.49
2023-05-08T13:30:19.129Z,23.66
2023-05-08T13:32:47.142Z,23.77
2023-05-08T13:35:19.178Z,23.83
2023-05-08T13:37:47.870Z,23.92
2023-05-08T13:40:19.252Z,24.02
2023-05-08T13:42:49.876Z,23.96
2023-05-08T13:45:21.394Z,23.92
2023-05-08T13:47:55.047Z,23.90
2023-05-08T13:50:31.726Z,23.93
2023-05-08T13:53:03.645Z,24.05
2023-05-08T13:55:37.955Z,24.13
2023-05-08T13:58:05.972Z,24.21
2023-05-08T14:00:34.597Z,24.33
2023-05-08T14:03:11.440Z,24.49
2023-05-08T14:05:47.460Z,24.55
2023-05-08T14:08:21.387Z,24.52
2023-05-08T14:10:49.697Z,24.36
2023-05-08T14:13:17.798Z,24.23
2023-05-08T14:15:48.387Z,24.17
2023-05-08T14:18:16.241Z,24.27
2023-05-08T14:20:56.947Z,24.20
2023-05-08T14:23:28.346Z,24.17
2023-05-08T14:25:58.218Z,24.12
2023-05-08T14:28:28.691Z,24.12
2023-05-08T14:30:58.308Z,24.12
2023-05-08T14:33:28.902Z,24.17
2023-05-08T14:36:00.412Z,24.11
2023-05-08T14:38:28.777Z,24.10
2023-05-08T14:41:04.274Z,24.02
2023-05-08T14:43:39.122Z,23.88
2023-05-08T14:46:07.810Z,23.84
2023-05-08T14:48:37.877Z,23.73
2023-05-08T14:51:09.975Z,23.60
2023-05-08T14:53:38.305Z,23.49
2023-05-08T14:56:07.407Z,23.39
2023-05-08T14:58:44.675Z,23.33
2023-05-08T15:01:12.886Z,23.32
2023-05-08T15:03:42.601Z,23.27
2023-05-08T15:06:14.301Z,23.18
2023-05-08T15:08:47.986Z,23.11
2023-05-08T15:11:16.456Z,23.07
2023-05-08T15:13:54.173Z,23.07
2023-05-08T15:16:24.215Z,23.05
2023-05-08T15:19:24.570Z,22.91
2023-05-08T15:21:53.737Z,22.84
2023-05-08T15:24:21.418Z,22.68
2023-05-08T15:26:49.142Z,22.51
2023-05-08T15:29:16.858Z,22.37
2023-05-08T15:31:44.620Z,22.31
2023-05-08T15:34:12.503Z,22.26
2023-05-08T15:36:40.218Z,22.14
2023-05-08T15:39:09.482Z,22.03
2023-05-08T15:41:39.318Z,21.91
2023-05-08T15:44:07.216Z,21.81
2023-05-08T15:46:35.118Z,21.71
2023-05-08T15:49:03.270Z,21.55
2023-05-08T15:51:31.854Z,21.41
2023-05-08T15:53:59.602Z,21.30
2023-05-08T15:56:28.745Z,21.18
2023-05-08T15:58:56.556Z,21.03
2023-05-08T16:01:24.362Z,20.87
2023-05-08T16:03:52.096Z,20.70
2023-05-08T16:06:19.785Z,20.58
2023-05-08T16:08:47.510Z,20.47
2023-05-08T16:11:15.207Z,20.36
2023-05-08T16:13:44.357Z,20.25
2023-05-08T16:16:12.246Z,20.13
2023-05-08T16:18:40.012Z,20.07
2023-05-08T16:21:09.787Z,20.02
2023-05-08T16:23:37.720Z,19.90
2023-05-08T16:26:05.637Z,19.82
2023-05-08T16:28:33.536Z,19.72
2023-05-08T16:31:04.605Z,19.65
2023-05-08T16:33:33.024Z,19.56
2023-05-08T16:36:00.789Z,19.46
2023-05-08T16:38:28.461Z,19.35
2023-05-08T16:41:02.563Z,19.25
2023-05-08T16:43:30.277Z,19.17
2023-05-08T16:45:59.348Z,19.09
2023-05-08T16:48:29.061Z,18.99
2023-05-08T16:50:57.236Z,18.89
2023-05-08T16:53:27.139Z,18.79
2023-05-08T16:55:55.062Z,18.69
2023-05-08T16:58:22.957Z,18.61
2023-05-08T17:00:50.961Z,18.53
2023-05-08T17:03:18.904Z,18.46
2023-05-08T17:05:48.093Z,18.37
2023-05-08T17:08:16.069Z,18.30
2023-05-08T17:10:43.853Z,18.22
2023-05-08T17:13:11.611Z,18.14
2023-05-08T17:15:39.453Z,18.06
2023-05-08T17:18:07.795Z,17.98
2023-05-08T17:20:42.369Z,17.91
2023-05-08T17:23:11.749Z,17.83
2023-05-08T17:25:39.567Z,17.76
2023-05-08T17:28:07.780Z,17.68
2023-05-08T17:30:35.668Z,17.60
2023-05-08T17:33:03.854Z,17.53
2023-05-08T17:35:31.649Z,17.45
2023-05-08T17:37:59.378Z,17.38
2023-05-08T17:40:28.946Z,17.29
2023-05-08T17:42:56.782Z,17.22
2023-05-08T17:45:24.576Z,17.14
2023-05-08T17:47:52.439Z,17.07
2023-05-08T17:50:20.169Z,16.99
2023-05-08T17:52:47.980Z,16.91
2023-05-08T17:55:15.728Z,16.85
2023-05-08T17:57:45.015Z,16.77
2023-05-08T18:00:14.052Z,16.71
2023-05-08T18:02:42.143Z,16.63
2023-05-08T18:05:10.794Z,16.55
2023-05-08T18:07:38.609Z,16.50
2023-05-08T18:10:07.619Z,16.42
2023-05-08T18:12:35.360Z,16.35
2023-05-08T18:15:07.852Z,16.26
2023-05-08T18:17:35.640Z,16.19
2023-05-08T18:20:07.753Z,16.11
2023-05-08T18:22:35.594Z,16.02
2023-05-08T18:25:04.402Z,15.94
2023-05-08T18:27:34.344Z,15.86
2023-05-08T18:30:02.266Z,15.78
2023-05-08T18:32:31.614Z,15.69
2023-05-08T18:34:59.517Z,15.62
2023-05-08T18:37:27.246Z,15.55
2023-05-08T18:39:55.150Z,15.46
2023-05-08T18:42:22.960Z,15.38
2023-05-08T18:44:50.723Z,15.30
2023-05-08T18:47:18.473Z,15.22
2023-05-08T18:49:47.914Z,15.15
2023-05-08T18:52:15.698Z,15.05
2023-05-08T18:54:43.509Z,14.99
2023-05-08T18:57:11.294Z,14.92
2023-05-08T18:59:39.145Z,14.85
2023-05-08T19:02:06.932Z,14.76
2023-05-08T19:04:34.760Z,14.68
2023-05-08T19:07:03.992Z,14.61
2023-05-08T19:09:33.613Z,14.53
2023-05-08T19:12:01.502Z,14.46
2023-05-08T19:14:29.239Z,14.39
2023-05-08T19:16:58.465Z,14.32
2023-05-08T19:19:27.584Z,14.25
2023-05-08T19:21:55.557Z,14.18
2023-05-08T19:24:29.714Z,14.12
2023-05-08T19:26:57.719Z,14.04
2023-05-08T19:29:25.533Z,13.99
2023-05-08T19:31:53.565Z,13.92
2023-05-08T19:34:21.411Z,13.83
2023-05-08T19:36:49.258Z,13.78
2023-05-08T19:39:18.168Z,13.71
2023-05-08T19:41:47.350Z,13.63
2023-05-08T19:44:15.113Z,13.58
2023-05-08T19:46:43.523Z,13.51
2023-05-08T19:49:11.251Z,13.41
2023-05-08T19:51:39.812Z,13.36
2023-05-08T19:54:07.571Z,13.32
2023-05-08T19:56:35.368Z,13.26
2023-05-08T19:59:04.473Z,13.19
2023-05-08T20:01:32.297Z,13.14
2023-05-08T20:04:00.984Z,13.07
2023-05-08T20:06:29.683Z,13.02
2023-05-08T20:08:57.579Z,12.95
2023-05-08T20:11:26.078Z,12.86
2023-05-08T20:13:53.873Z,12.80
2023-05-08T20:16:23.063Z,12.75
2023-05-08T20:18:50.899Z,12.68
2023-05-08T20:21:18.688Z,12.61
2023-05-08T20:23:46.501Z,12.53
2023-05-08T20:26:14.355Z,12.46
2023-05-08T20:28:42.208Z,12.40
2023-05-08T20:31:10.210Z,12.34
2023-05-08T20:33:39.553Z,12.30
2023-05-08T20:36:07.568Z,12.24
2023-05-08T20:38:36.524Z,12.18
2023-05-08T20:41:04.903Z,12.13
2023-05-08T20:43:32.721Z,12.07
2023-05-08T20:46:00.708Z,12.03
2023-05-08T20:48:28.547Z,11.97
2023-05-08T20:50:57.950Z,11.91
2023-05-08T20:53:25.696Z,11.87
2023-05-08T20:56:01.054Z,11.84
2023-05-08T20:58:28.841Z,11.79
2023-05-08T21:00:56.849Z,11.75
2023-05-08T21:03:24.804Z,11.70
2023-05-08T21:05:53.075Z,11.65
2023-05-08T21:08:24.329Z,11.59
2023-05-08T21:10:52.898Z,11.55
2023-05-08T21:13:20.840Z,11.49
2023-05-08T21:15:49.854Z,11.45
2023-05-08T21:18:17.698Z,11.37
2023-05-08T21:20:49.772Z,11.33
2023-05-08T21:23:18.055Z,11.28
2023-05-08T21:25:47.985Z,11.23
2023-05-08T21:28:16.462Z,11.20
2023-05-08T21:30:44.482Z,11.15
2023-05-08T21:33:13.869Z,11.11
2023-05-08T21:35:42.177Z,11.06
2023-05-08T21:38:12.106Z,11.01
2023-05-08T21:40:40.190Z,10.97
2023-05-08T21:43:09.497Z,10.93
2023-05-08T21:45:37.475Z,10.87
2023-05-08T21:48:05.866Z,10.81
2023-05-08T21:50:33.633Z,10.76
2023-05-08T21:53:01.491Z,10.70
2023-05-08T21:55:30.982Z,10.65
2023-05-08T21:58:00.090Z,10.59
2023-05-08T22:00:29.262Z,10.54
2023-05-08T22:02:57.093Z,10.50
2023-05-08T22:05:25.065Z,10.46
2023-05-08T22:07:52.873Z,10.43
2023-05-08T22:10:21.500Z,10.37
2023-05-08T22:12:49.625Z,10.35
2023-05-08T22:15:29.007Z,10.30
2023-05-08T22:18:02.533Z,10.25
2023-05-08T22:20:30.561Z,10.21
2023-05-08T22:22:58.554Z,10.18
2023-05-08T22:25:26.948Z,10.15
2023-05-08T22:27:54.841Z,10.13
2023-05-08T22:30:22.778Z,10.08
2023-05-08T22:32:55.414Z,10.05
2023-05-08T22:35:26.851Z,10.00
2023-05-08T22:37:55.441Z,9.97
2023-05-08T22:40:24.062Z,9.94
2023-05-08T22:42:53.515Z,9.90
2023-05-08T22:45:21.467Z,9.89
2023-05-08T22:47:49.450Z,9.85
2023-05-08T22:50:17.433Z,9.85
2023-05-08T22:52:46.913Z,9.82
2023-05-08T22:55:15.496Z,9.83
2023-05-08T22:57:43.685Z,9.84
2023-05-08T23:00:12.618Z,9.88
2023-05-08T23:02:40.373Z,9.89
2023-05-08T23:05:09.267Z,9.87
2023-05-08T23:07:37.003Z,9.85
2023-05-08T23:10:06.722Z,9.84
2023-05-08T23:12:34.449Z,9.83
2023-05-08T23:15:02.159Z,9.82
2023-05-08T23:17:29.965Z,9.81
2023-05-08T23:19:57.691Z,9.80
2023-05-08T23:22:25.505Z,9.78
2023-05-08T23:24:53.240Z,9.74
2023-05-08T23:27:22.291Z,9.71
2023-05-08T23:29:50.086Z,9.68
2023-05-08T23:32:17.786Z,9.64
2023-05-08T23:34:45.627Z,9.60
2023-05-08T23:37:13.352Z,9.56
2023-05-08T23:39:42.031Z,9.50
2023-05-08T23:42:09.971Z,9.48
2023-05-08T23:44:39.704Z,9.41
2023-05-08T23:47:07.468Z,9.37
2023-05-08T23:49:35.895Z,9.35
2023-05-08T23:52:03.661Z,9.31
2023-05-08T23:54:31.418Z,9.28
2023-05-08T23:56:59.140Z,9.24
2023-05-08T23:59:26.867Z,9.21
